createdAt,value
2022-08-17T00:02:01.456Z,9.60
2022-08-17T00:07:10.973Z,9.88
2022-08-17T00:12:43.259Z,10.18
2022-08-17T00:17:34.408Z,9.90
2022-08-17T00:22:46.653Z,10.27
2022-08-17T00:27:48.330Z,9.70
2022-08-17T00:33:14.482Z,9.93
2022-08-17T00:38:12.409Z,10.07
2022-08-17T00:43:20.678Z,10.77
2022-08-17T00:53:36.463Z,10.68
2022-08-17T00:58:38.620Z,9.77
2022-08-17T01:03:41.902Z,11.07
2022-08-17T01:08:43.594Z,10.93
2022-08-17T01:13:45.646Z,10.85
2022-08-17T01:18:49.399Z,11.00
2022-08-17T01:23:51.023Z,11.05
2022-08-17T01:28:55.783Z,10.50
2022-08-17T01:34:05.959Z,11.75
2022-08-17T01:39:16.186Z,11.63
2022-08-17T01:44:18.033Z,10.90
2022-08-17T01:49:19.732Z,10.65
2022-08-17T01:54:22.258Z,11.38
2022-08-17T01:59:23.989Z,11.02
2022-08-17T02:04:25.573Z,11.80
2022-08-17T02:09:29.713Z,11.48
2022-08-17T02:14:31.744Z,11.52
2022-08-17T02:19:33.356Z,10.70
2022-08-17T02:25:00.095Z,11.43
2022-08-17T02:30:00.252Z,11.27
2022-08-17T02:35:01.885Z,11.20
2022-08-17T02:40:04.548Z,10.65
2022-08-17T02:45:11.201Z,11.10
2022-08-17T02:50:15.553Z,11.30
2022-08-17T02:55:19.258Z,11.40
2022-08-17T03:00:28.829Z,11.73
2022-08-17T03:05:32.732Z,11.80
2022-08-17T03:10:34.550Z,11.45
2022-08-17T03:15:36.293Z,11.50
2022-08-17T03:20:42.297Z,11.40
2022-08-17T03:25:46.044Z,11.02
2022-08-17T03:30:47.676Z,11.80
2022-08-17T03:35:49.392Z,11.50
2022-08-17T03:40:58.845Z,11.85
2022-08-17T03:46:34.138Z,11.57
2022-08-17T03:51:54.826Z,12.35
2022-08-17T03:57:10.871Z,12.02
2022-08-17T04:02:30.233Z,11.98
2022-08-17T04:07:32.087Z,11.63
2022-08-17T04:12:49.602Z,12.18
2022-08-17T04:17:52.376Z,11.90
2022-08-17T04:22:59.396Z,11.95
2022-08-17T04:28:01.995Z,12.15
2022-08-17T04:33:09.799Z,12.43
2022-08-17T04:38:14.934Z,11.23
2022-08-17T04:43:19.631Z,11.80
2022-08-17T04:48:21.351Z,11.70
2022-08-17T04:53:22.971Z,12.18
2022-08-17T04:58:25.029Z,11.77
2022-08-17T05:03:26.695Z,12.07
2022-08-17T05:08:28.295Z,11.55
2022-08-17T05:13:30.238Z,11.25
2022-08-17T05:18:32.894Z,10.93
2022-08-17T05:23:43.049Z,10.20
2022-08-17T05:28:45.456Z,11.60
2022-08-17T05:33:47.796Z,10.20
2022-08-17T05:38:50.644Z,10.45
2022-08-17T05:43:56.260Z,8.75
2022-08-17T05:49:03.459Z,10.02
2022-08-17T05:54:42.081Z,9.40
2022-08-17T06:00:20.968Z,10.00
2022-08-17T06:05:37.039Z,9.65
2022-08-17T06:10:59.622Z,8.90
2022-08-17T06:16:28.172Z,8.85
2022-08-17T06:21:39.601Z,9.38
2022-08-17T06:26:44.287Z,9.40
2022-08-17T06:31:46.218Z,9.90
2022-08-17T06:36:56.629Z,9.45
2022-08-17T06:42:10.246Z,9.90
2022-08-17T06:47:49.558Z,9.75
2022-08-17T06:52:59.882Z,9.23
2022-08-17T06:58:16.366Z,9.00
2022-08-17T07:03:24.525Z,9.57
2022-08-17T07:08:47.581Z,9.57
2022-08-17T07:14:25.003Z,8.60
2022-08-17T07:19:32.107Z,8.23
2022-08-17T07:25:02.592Z,9.47
2022-08-17T07:30:26.571Z,9.10
2022-08-17T07:35:40.791Z,9.77
2022-08-17T07:41:03.136Z,8.63
2022-08-17T07:46:31.142Z,8.55
2022-08-17T07:56:49.167Z,8.65
2022-08-17T08:01:57.714Z,9.00
2022-08-17T08:07:01.859Z,8.90
2022-08-17T08:12:22.004Z,8.82
2022-08-17T08:17:30.694Z,9.05
2022-08-17T08:22:47.729Z,9.10
2022-08-17T08:28:27.971Z,8.43
2022-08-17T08:33:56.404Z,7.32
2022-08-17T08:39:13.056Z,8.35
2022-08-17T08:45:00.616Z,9.07
2022-08-17T08:50:03.955Z,8.70
2022-08-17T08:55:07.786Z,8.13
2022-08-17T09:00:16.753Z,9.25
2022-08-17T09:05:56.393Z,8.13
2022-08-17T09:12:01.382Z,8.70
2022-08-17T09:17:14.955Z,8.35
2022-08-17T09:22:33.181Z,7.60
2022-08-17T09:28:00.486Z,7.03
2022-08-17T09:33:08.061Z,8.60
2022-08-17T09:38:31.871Z,7.63
2022-08-17T09:43:55.175Z,7.25
2022-08-17T09:49:03.454Z,8.02
2022-08-17T09:54:37.638Z,7.38
2022-08-17T09:59:54.921Z,7.05
2022-08-17T10:05:38.075Z,7.15
2022-08-17T10:10:56.439Z,6.72
2022-08-17T10:16:11.564Z,7.72
2022-08-17T10:21:37.583Z,7.40
2022-08-17T10:26:56.178Z,7.20
2022-08-17T10:32:05.098Z,7.80
2022-08-17T10:37:26.332Z,7.05
2022-08-17T10:42:50.561Z,7.35
2022-08-17T10:47:55.721Z,7.50
2022-08-17T10:52:59.940Z,7.17
2022-08-17T10:58:21.934Z,7.32
2022-08-17T11:03:25.659Z,7.65
2022-08-17T11:08:39.374Z,7.20
2022-08-17T11:13:51.738Z,6.97
2022-08-17T11:19:15.142Z,7.45
2022-08-17T11:24:21.224Z,7.13
2022-08-17T11:29:27.632Z,7.20
2022-08-17T11:34:32.634Z,7.20
2022-08-17T11:39:53.092Z,6.97
2022-08-17T11:45:09.992Z,7.47
2022-08-17T11:50:49.998Z,7.40
2022-08-17T11:55:51.705Z,7.60
2022-08-17T12:01:00.930Z,7.13
2022-08-17T12:06:30.727Z,6.20
2022-08-17T12:12:11.265Z,7.15
2022-08-17T12:17:14.161Z,6.60
2022-08-17T12:22:38.730Z,6.40
2022-08-17T12:28:05.136Z,6.57
2022-08-17T12:33:13.786Z,6.65
2022-08-17T12:38:34.762Z,6.90
2022-08-17T12:43:36.492Z,7.47
2022-08-17T12:48:38.112Z,7.25
2022-08-17T12:53:45.578Z,7.63
2022-08-17T12:58:56.893Z,7.07
2022-08-17T13:04:00.236Z,7.07
2022-08-17T13:09:13.797Z,7.25
2022-08-17T13:14:18.511Z,7.57
2022-08-17T13:19:40.433Z,6.70
2022-08-17T13:24:58.601Z,7.60
2022-08-17T13:35:39.918Z,7.95
2022-08-17T13:40:44.217Z,7.63
2022-08-17T13:45:50.738Z,7.65
2022-08-17T13:50:56.886Z,7.50
2022-08-17T13:56:37.932Z,8.15
2022-08-17T14:01:52.574Z,7.63
2022-08-17T14:06:57.833Z,7.43
2022-08-17T14:12:00.280Z,7.53
2022-08-17T14:17:02.093Z,6.13
2022-08-17T14:22:08.854Z,6.88
2022-08-17T14:27:10.358Z,6.93
2022-08-17T14:32:19.320Z,6.63
2022-08-17T14:37:21.627Z,6.53
2022-08-17T14:42:25.269Z,6.57
2022-08-17T14:47:26.762Z,6.32
2022-08-17T14:52:28.864Z,6.57
2022-08-17T14:57:34.155Z,6.80
2022-08-17T15:02:55.625Z,7.20
2022-08-17T15:07:58.145Z,6.57
2022-08-17T15:13:00.431Z,6.70
2022-08-17T15:18:02.579Z,6.78
2022-08-17T15:23:04.419Z,6.10
2022-08-17T15:28:06.394Z,7.93
2022-08-17T15:33:07.882Z,7.13
2022-08-17T15:38:11.961Z,7.00
2022-08-17T15:43:32.639Z,7.30
2022-08-17T15:48:41.720Z,5.95
2022-08-17T15:53:46.228Z,7.20
2022-08-17T15:58:49.093Z,6.20
2022-08-17T16:04:04.347Z,6.65
2022-08-17T16:09:06.866Z,6.32
2022-08-17T16:14:08.323Z,6.47
2022-08-17T16:19:09.794Z,6.80
2022-08-17T16:24:12.867Z,5.82
2022-08-17T16:29:15.274Z,5.78
2022-08-17T16:34:18.898Z,6.10
2022-08-17T16:39:20.408Z,6.05
2022-08-17T16:44:22.022Z,5.72
2022-08-17T16:49:35.968Z,6.38
2022-08-17T16:54:43.299Z,6.15
2022-08-17T16:59:48.114Z,5.88
2022-08-17T17:04:56.039Z,6.13
2022-08-17T17:09:57.500Z,6.40
2022-08-17T17:15:02.213Z,6.38
2022-08-17T17:20:12.466Z,6.60
2022-08-17T17:25:23.865Z,6.18
2022-08-17T17:30:33.095Z,6.25
2022-08-17T17:36:01.858Z,7.00
2022-08-17T17:41:08.587Z,6.72
2022-08-17T17:46:29.156Z,7.00
2022-08-17T17:52:11.032Z,6.47
2022-08-17T17:58:05.834Z,6.97
2022-08-17T18:03:51.575Z,7.35
2022-08-17T18:08:58.953Z,6.93
2022-08-17T18:14:17.225Z,6.60
2022-08-17T18:19:24.972Z,8.13
2022-08-17T18:24:33.417Z,7.80
2022-08-17T18:29:44.245Z,8.30
2022-08-17T18:34:48.823Z,8.93
2022-08-17T18:39:50.503Z,9.20
2022-08-17T18:44:55.338Z,8.20
2022-08-17T18:50:18.632Z,8.68
2022-08-17T18:55:23.114Z,8.82
2022-08-17T19:00:30.594Z,8.07
2022-08-17T19:05:37.996Z,8.35
2022-08-17T19:10:46.776Z,8.68
2022-08-17T19:16:05.298Z,8.93
2022-08-17T19:21:22.824Z,9.40
2022-08-17T19:26:55.163Z,9.38
2022-08-17T19:37:02.500Z,9.23
2022-08-17T19:42:12.820Z,9.60
2022-08-17T19:47:50.973Z,10.25
2022-08-17T19:53:09.736Z,10.10
2022-08-17T19:58:24.801Z,10.32
2022-08-17T20:03:29.873Z,9.23
2022-08-17T20:09:15.251Z,9.90
2022-08-17T20:14:53.535Z,9.52
2022-08-17T20:20:24.029Z,10.07
2022-08-17T20:25:31.552Z,10.63
2022-08-17T20:30:41.002Z,10.68
2022-08-17T20:35:59.847Z,10.93
2022-08-17T20:41:04.304Z,11.02
2022-08-17T20:46:28.472Z,10.35
2022-08-17T20:51:34.786Z,11.65
2022-08-17T20:56:57.872Z,11.50
2022-08-17T21:02:08.971Z,11.30
2022-08-17T21:07:42.550Z,11.50
2022-08-17T21:12:55.914Z,11.43
2022-08-17T21:18:16.496Z,12.10
2022-08-17T21:23:52.136Z,11.80
2022-08-17T21:29:32.046Z,11.35
2022-08-17T21:34:39.197Z,10.90
2022-08-17T21:39:41.716Z,11.57
2022-08-17T21:44:49.382Z,11.27
2022-08-17T21:49:52.681Z,11.68
2022-08-17T21:54:58.699Z,12.25
2022-08-17T22:00:02.762Z,11.50
2022-08-17T22:05:11.125Z,11.43
2022-08-17T22:10:27.818Z,12.25
2022-08-17T22:15:29.528Z,11.88
2022-08-17T22:20:31.380Z,11.23
2022-08-17T22:25:36.600Z,12.05
2022-08-17T22:30:42.917Z,12.30
2022-08-17T22:35:45.544Z,12.65
2022-08-17T22:40:53.930Z,12.25
2022-08-17T22:51:13.839Z,12.52
2022-08-17T22:56:37.564Z,13.48
2022-08-17T23:01:40.695Z,11.82
2022-08-17T23:06:42.616Z,12.50
2022-08-17T23:11:48.934Z,12.43
2022-08-17T23:16:51.298Z,12.82
2022-08-17T23:21:55.368Z,12.50
2022-08-17T23:26:58.184Z,13.27
2022-08-17T23:32:01.406Z,13.60
2022-08-17T23:37:04.446Z,13.00
2022-08-17T23:42:09.333Z,13.18
2022-08-17T23:47:11.305Z,13.48
2022-08-17T23:52:15.307Z,13.27
2022-08-17T23:57:33.089Z,13.50
